sensor_id;sensor_type;location;lat;lon;timestamp;temperature;humidity
326;DHT22;150;52.352;14.058;2023-01-01T00:00:58;16.90;28.20
326;DHT22;150;52.352;14.058;2023-01-01T00:03:24;16.90;28.20
326;DHT22;150;52.352;14.058;2023-01-01T00:05:51;16.90;27.80
326;DHT22;150;52.352;14.058;2023-01-01T00:08:18;17.00;27.50
326;DHT22;150;52.352;14.058;2023-01-01T00:10:45;17.00;27.40
326;DHT22;150;52.352;14.058;2023-01-01T00:13:12;17.00;27.00
326;DHT22;150;52.352;14.058;2023-01-01T00:15:39;17.00;26.80
326;DHT22;150;52.352;14.058;2023-01-01T00:18:06;17.00;26.40
326;DHT22;150;52.352;14.058;2023-01-01T00:20:32;17.00;26.30
326;DHT22;150;52.352;14.058;2023-01-01T00:22:59;17.00;26.20
326;DHT22;150;52.352;14.058;2023-01-01T00:25:26;17.10;26.00
326;DHT22;150;52.352;14.058;2023-01-01T00:27:54;17.10;26.00
326;DHT22;150;52.352;14.058;2023-01-01T00:30:20;17.10;25.50
326;DHT22;150;52.352;14.058;2023-01-01T00:32:49;17.10;25.20
326;DHT22;150;52.352;14.058;2023-01-01T00:35:15;17.10;25.50
326;DHT22;150;52.352;14.058;2023-01-01T00:37:42;17.10;25.30
326;DHT22;150;52.352;14.058;2023-01-01T00:40:10;17.10;25.20
326;DHT22;150;52.352;14.058;2023-01-01T00:42:36;17.10;25.20
326;DHT22;150;52.352;14.058;2023-01-01T00:45:07;17.10;25.10
326;DHT22;150;52.352;14.058;2023-01-01T00:47:34;17.10;25.60
326;DHT22;150;52.352;14.058;2023-01-01T00:50:01;17.10;24.90
326;DHT22;150;52.352;14.058;2023-01-01T00:52:27;17.00;24.90
326;DHT22;150;52.352;14.058;2023-01-01T00:54:56;17.10;25.00
326;DHT22;150;52.352;14.058;2023-01-01T00:57:22;17.20;24.70
326;DHT22;150;52.352;14.058;2023-01-01T00:59:49;17.10;24.90
326;DHT22;150;52.352;14.058;2023-01-01T01:02:17;17.10;25.30
326;DHT22;150;52.352;14.058;2023-01-01T01:04:43;17.10;24.90
326;DHT22;150;52.352;14.058;2023-01-01T01:07:10;17.10;24.80
326;DHT22;150;52.352;14.058;2023-01-01T01:09:51;17.10;24.80
326;DHT22;150;52.352;14.058;2023-01-01T01:12:17;17.10;24.40
326;DHT22;150;52.352;14.058;2023-01-01T01:14:51;17.00;24.70
326;DHT22;150;52.352;14.058;2023-01-01T01:17:28;17.00;24.60
326;DHT22;150;52.352;14.058;2023-01-01T01:19:55;17.10;24.90
326;DHT22;150;52.352;14.058;2023-01-01T01:22:30;17.10;24.80
326;DHT22;150;52.352;14.058;2023-01-01T01:25:02;17.10;24.70
326;DHT22;150;52.352;14.058;2023-01-01T01:27:33;17.10;24.70
326;DHT22;150;52.352;14.058;2023-01-01T01:29:59;17.10;24.90
326;DHT22;150;52.352;14.058;2023-01-01T01:32:32;17.10;24.80
326;DHT22;150;52.352;14.058;2023-01-01T01:34:59;17.10;24.70
326;DHT22;150;52.352;14.058;2023-01-01T01:37:50;17.10;24.50
326;DHT22;150;52.352;14.058;2023-01-01T01:40:17;17.00;24.60
326;DHT22;150;52.352;14.058;2023-01-01T01:42:50;17.00;24.70
326;DHT22;150;52.352;14.058;2023-01-01T01:45:22;17.00;24.70
326;DHT22;150;52.352;14.058;2023-01-01T01:48:00;16.90;24.60
326;DHT22;150;52.352;14.058;2023-01-01T01:50:38;17.00;24.70
326;DHT22;150;52.352;14.058;2023-01-01T01:53:34;16.90;24.80
326;DHT22;150;52.352;14.058;2023-01-01T01:56:14;16.90;24.50
326;DHT22;150;52.352;14.058;2023-01-01T01:58:51;16.90;24.80
326;DHT22;150;52.352;14.058;2023-01-01T02:01:18;16.90;24.60
326;DHT22;150;52.352;14.058;2023-01-01T02:03:57;16.90;24.70
326;DHT22;150;52.352;14.058;2023-01-01T02:06:34;16.90;24.80
326;DHT22;150;52.352;14.058;2023-01-01T02:09:10;16.80;24.60
326;DHT22;150;52.352;14.058;2023-01-01T02:11:37;16.90;24.20
326;DHT22;150;52.352;14.058;2023-01-01T02:14:32;16.80;24.20
326;DHT22;150;52.352;14.058;2023-01-01T02:17:02;16.80;24.10
326;DHT22;150;52.352;14.058;2023-01-01T02:19:42;16.80;24.10
326;DHT22;150;52.352;14.058;2023-01-01T02:22:14;16.80;24.10
326;DHT22;150;52.352;14.058;2023-01-01T02:24:48;16.80;24.20
326;DHT22;150;52.352;14.058;2023-01-01T02:27:22;16.80;23.90
326;DHT22;150;52.352;14.058;2023-01-01T02:29:53;16.80;24.00
326;DHT22;150;52.352;14.058;2023-01-01T02:32:24;16.80;24.10
326;DHT22;150;52.352;14.058;2023-01-01T02:34:56;16.70;23.70
326;DHT22;150;52.352;14.058;2023-01-01T02:37:24;16.70;24.30
326;DHT22;150;52.352;14.058;2023-01-01T02:39:55;16.70;23.90
326;DHT22;150;52.352;14.058;2023-01-01T02:42:26;16.70;24.00
326;DHT22;150;52.352;14.058;2023-01-01T02:44:56;16.70;24.10
326;DHT22;150;52.352;14.058;2023-01-01T02:47:24;16.70;24.20
326;DHT22;150;52.352;14.058;2023-01-01T02:49:57;16.70;24.30
326;DHT22;150;52.352;14.058;2023-01-01T02:52:51;16.60;24.40
326;DHT22;150;52.352;14.058;2023-01-01T02:55:30;16.50;24.40
326;DHT22;150;52.352;14.058;2023-01-01T02:58:07;16.50;24.30
326;DHT22;150;52.352;14.058;2023-01-01T03:00:55;16.50;24.40
326;DHT22;150;52.352;14.058;2023-01-01T03:03:27;16.50;24.40
326;DHT22;150;52.352;14.058;2023-01-01T03:05:59;16.50;24.40
326;DHT22;150;52.352;14.058;2023-01-01T03:08:55;16.50;24.30
326;DHT22;150;52.352;14.058;2023-01-01T03:11:31;16.50;24.50
326;DHT22;150;52.352;14.058;2023-01-01T03:14:03;16.50;24.40
326;DHT22;150;52.352;14.058;2023-01-01T03:16:39;16.40;24.60
326;DHT22;150;52.352;14.058;2023-01-01T03:19:10;16.40;24.50
326;DHT22;150;52.352;14.058;2023-01-01T03:21:40;16.40;24.70
326;DHT22;150;52.352;14.058;2023-01-01T03:24:10;16.30;24.50
326;DHT22;150;52.352;14.058;2023-01-01T03:26:38;16.30;24.60
326;DHT22;150;52.352;14.058;2023-01-01T03:29:07;16.30;24.50
326;DHT22;150;52.352;14.058;2023-01-01T03:31:41;16.30;24.80
326;DHT22;150;52.352;14.058;2023-01-01T03:34:11;16.30;24.90
326;DHT22;150;52.352;14.058;2023-01-01T03:36:41;16.30;24.80
326;DHT22;150;52.352;14.058;2023-01-01T03:39:14;16.30;25.00
326;DHT22;150;52.352;14.058;2023-01-01T03:41:45;16.20;25.20
326;DHT22;150;52.352;14.058;2023-01-01T03:44:15;16.20;25.10
326;DHT22;150;52.352;14.058;2023-01-01T03:46:44;16.20;25.30
326;DHT22;150;52.352;14.058;2023-01-01T03:49:12;16.20;25.40
326;DHT22;150;52.352;14.058;2023-01-01T03:51:59;16.10;25.50
326;DHT22;150;52.352;14.058;2023-01-01T03:54:35;16.10;25.60
326;DHT22;150;52.352;14.058;2023-01-01T03:57:09;16.10;25.60
326;DHT22;150;52.352;14.058;2023-01-01T03:59:41;16.10;25.70
326;DHT22;150;52.352;14.058;2023-01-01T04:02:12;16.00;25.80
326;DHT22;150;52.352;14.058;2023-01-01T04:04:39;15.90;25.90
326;DHT22;150;52.352;14.058;2023-01-01T04:07:06;15.90;26.20
326;DHT22;150;52.352;14.058;2023-01-01T04:09:34;15.90;26.70
326;DHT22;150;52.352;14.058;2023-01-01T04:12:02;15.90;26.40
326;DHT22;150;52.352;14.058;2023-01-01T04:14:31;15.90;26.30
326;DHT22;150;52.352;14.058;2023-01-01T04:17:01;15.80;26.40
326;DHT22;150;52.352;14.058;2023-01-01T04:19:29;15.80;26.50
326;DHT22;150;52.352;14.058;2023-01-01T04:21:56;15.80;26.60
326;DHT22;150;52.352;14.058;2023-01-01T04:24:25;15.80;26.90
326;DHT22;150;52.352;14.058;2023-01-01T04:26:52;15.80;27.00
326;DHT22;150;52.352;14.058;2023-01-01T04:29:19;15.70;27.40
326;DHT22;150;52.352;14.058;2023-01-01T04:31:46;15.70;27.00
326;DHT22;150;52.352;14.058;2023-01-01T04:34:12;15.80;27.00
326;DHT22;150;52.352;14.058;2023-01-01T04:36:41;15.80;27.30
326;DHT22;150;52.352;14.058;2023-01-01T04:39:07;15.80;27.00
326;DHT22;150;52.352;14.058;2023-01-01T04:41:34;15.70;27.40
326;DHT22;150;52.352;14.058;2023-01-01T04:44:01;15.80;26.80
326;DHT22;150;52.352;14.058;2023-01-01T04:46:28;15.70;27.00
326;DHT22;150;52.352;14.058;2023-01-01T04:48:54;15.70;27.30
326;DHT22;150;52.352;14.058;2023-01-01T04:51:21;15.70;27.40
326;DHT22;150;52.352;14.058;2023-01-01T04:53:49;15.80;27.70
326;DHT22;150;52.352;14.058;2023-01-01T04:56:17;15.80;26.90
326;DHT22;150;52.352;14.058;2023-01-01T04:58:45;15.80;26.80
326;DHT22;150;52.352;14.058;2023-01-01T05:01:17;15.70;27.10
326;DHT22;150;52.352;14.058;2023-01-01T05:03:45;15.70;27.20
326;DHT22;150;52.352;14.058;2023-01-01T05:06:12;15.70;26.90
326;DHT22;150;52.352;14.058;2023-01-01T05:08:40;15.70;27.00
326;DHT22;150;52.352;14.058;2023-01-01T05:11:10;15.70;27.40
326;DHT22;150;52.352;14.058;2023-01-01T05:13:38;15.70;27.40
326;DHT22;150;52.352;14.058;2023-01-01T05:16:08;15.70;27.30
326;DHT22;150;52.352;14.058;2023-01-01T05:18:35;15.70;27.40
326;DHT22;150;52.352;14.058;2023-01-01T05:21:05;15.70;27.00
326;DHT22;150;52.352;14.058;2023-01-01T05:23:32;15.70;27.10
326;DHT22;150;52.352;14.058;2023-01-01T05:25:59;15.70;27.10
326;DHT22;150;52.352;14.058;2023-01-01T05:28:27;15.80;27.00
326;DHT22;150;52.352;14.058;2023-01-01T05:30:54;15.70;27.20
326;DHT22;150;52.352;14.058;2023-01-01T05:33:20;15.80;26.90
326;DHT22;150;52.352;14.058;2023-01-01T05:35:52;15.80;26.90
326;DHT22;150;52.352;14.058;2023-01-01T05:38:18;15.80;26.60
326;DHT22;150;52.352;14.058;2023-01-01T05:40:45;15.80;26.60
326;DHT22;150;52.352;14.058;2023-01-01T05:43:12;15.90;26.40
326;DHT22;150;52.352;14.058;2023-01-01T05:45:40;15.90;26.30
326;DHT22;150;52.352;14.058;2023-01-01T05:48:06;15.90;26.10
326;DHT22;150;52.352;14.058;2023-01-01T05:50:35;16.00;26.00
326;DHT22;150;52.352;14.058;2023-01-01T05:53:02;16.00;25.90
326;DHT22;150;52.352;14.058;2023-01-01T05:55:28;16.10;25.90
326;DHT22;150;52.352;14.058;2023-01-01T05:57:57;16.00;25.80
326;DHT22;150;52.352;14.058;2023-01-01T06:00:24;16.10;25.70
326;DHT22;150;52.352;14.058;2023-01-01T06:02:53;16.10;25.60
326;DHT22;150;52.352;14.058;2023-01-01T06:05:20;16.10;25.70
326;DHT22;150;52.352;14.058;2023-01-01T06:07:47;16.10;25.80
326;DHT22;150;52.352;14.058;2023-01-01T06:10:15;16.10;25.70
326;DHT22;150;52.352;14.058;2023-01-01T06:12:42;16.20;25.70
326;DHT22;150;52.352;14.058;2023-01-01T06:15:09;16.10;25.60
326;DHT22;150;52.352;14.058;2023-01-01T06:17:35;16.10;25.70
326;DHT22;150;52.352;14.058;2023-01-01T06:20:04;16.10;25.90
326;DHT22;150;52.352;14.058;2023-01-01T06:22:31;16.10;25.80
326;DHT22;150;52.352;14.058;2023-01-01T06:24:57;16.10;25.90
326;DHT22;150;52.352;14.058;2023-01-01T06:27:24;16.20;25.90
326;DHT22;150;52.352;14.058;2023-01-01T06:29:51;16.10;25.80
326;DHT22;150;52.352;14.058;2023-01-01T06:32:17;16.10;25.80
326;DHT22;150;52.352;14.058;2023-01-01T06:34:44;16.10;25.80
326;DHT22;150;52.352;14.058;2023-01-01T06:37:12;16.10;25.90
326;DHT22;150;52.352;14.058;2023-01-01T06:39:38;16.10;26.00
326;DHT22;150;52.352;14.058;2023-01-01T06:42:05;16.10;26.10
326;DHT22;150;52.352;14.058;2023-01-01T06:44:32;16.00;26.00
326;DHT22;150;52.352;14.058;2023-01-01T06:46:58;16.00;26.00
326;DHT22;150;52.352;14.058;2023-01-01T06:49:25;16.00;25.90
326;DHT22;150;52.352;14.058;2023-01-01T06:51:51;16.00;26.00
326;DHT22;150;52.352;14.058;2023-01-01T06:54:19;16.00;26.00
326;DHT22;150;52.352;14.058;2023-01-01T06:56:46;16.00;26.10
326;DHT22;150;52.352;14.058;2023-01-01T06:59:14;16.00;25.80
326;DHT22;150;52.352;14.058;2023-01-01T07:01:41;16.00;25.90
326;DHT22;150;52.352;14.058;2023-01-01T07:04:12;16.00;26.20
326;DHT22;150;52.352;14.058;2023-01-01T07:06:39;15.90;26.10
326;DHT22;150;52.352;14.058;2023-01-01T07:09:07;15.90;26.00
326;DHT22;150;52.352;14.058;2023-01-01T07:11:35;15.90;26.20
326;DHT22;150;52.352;14.058;2023-01-01T07:14:02;15.90;26.20
326;DHT22;150;52.352;14.058;2023-01-01T07:16:29;16.00;26.30
326;DHT22;150;52.352;14.058;2023-01-01T07:18:58;15.90;26.20
326;DHT22;150;52.352;14.058;2023-01-01T07:21:28;15.90;26.10
326;DHT22;150;52.352;14.058;2023-01-01T07:23:56;16.00;25.90
326;DHT22;150;52.352;14.058;2023-01-01T07:26:23;15.90;26.00
326;DHT22;150;52.352;14.058;2023-01-01T07:28:52;15.90;26.70
326;DHT22;150;52.352;14.058;2023-01-01T07:31:19;15.90;26.00
326;DHT22;150;52.352;14.058;2023-01-01T07:33:45;15.90;26.00
326;DHT22;150;52.352;14.058;2023-01-01T07:36:12;15.90;25.90
326;DHT22;150;52.352;14.058;2023-01-01T07:38:39;15.90;25.60
326;DHT22;150;52.352;14.058;2023-01-01T07:41:06;15.90;25.80
326;DHT22;150;52.352;14.058;2023-01-01T07:43:33;15.90;25.70
326;DHT22;150;52.352;14.058;2023-01-01T07:46:00;15.90;25.90
326;DHT22;150;52.352;14.058;2023-01-01T07:48:29;16.00;25.80
326;DHT22;150;52.352;14.058;2023-01-01T07:50:56;16.00;25.90
326;DHT22;150;52.352;14.058;2023-01-01T07:53:22;16.00;25.70
326;DHT22;150;52.352;14.058;2023-01-01T07:55:49;16.00;25.80
326;DHT22;150;52.352;14.058;2023-01-01T07:58:16;16.10;25.70
326;DHT22;150;52.352;14.058;2023-01-01T08:00:45;16.00;25.40
326;DHT22;150;52.352;14.058;2023-01-01T08:03:13;16.10;25.50
326;DHT22;150;52.352;14.058;2023-01-01T08:05:39;16.10;25.40
326;DHT22;150;52.352;14.058;2023-01-01T08:08:07;16.20;25.30
326;DHT22;150;52.352;14.058;2023-01-01T08:10:34;16.20;25.00
326;DHT22;150;52.352;14.058;2023-01-01T08:13:01;16.20;25.30
326;DHT22;150;52.352;14.058;2023-01-01T08:15:29;16.20;25.10
326;DHT22;150;52.352;14.058;2023-01-01T08:17:56;16.20;25.10
326;DHT22;150;52.352;14.058;2023-01-01T08:20:25;16.30;25.00
326;DHT22;150;52.352;14.058;2023-01-01T08:22:52;16.20;25.10
326;DHT22;150;52.352;14.058;2023-01-01T08:25:19;16.30;25.10
326;DHT22;150;52.352;14.058;2023-01-01T08:27:45;16.30;25.00
326;DHT22;150;52.352;14.058;2023-01-01T08:30:13;16.30;25.10
326;DHT22;150;52.352;14.058;2023-01-01T08:32:40;16.30;25.20
326;DHT22;150;52.352;14.058;2023-01-01T08:35:08;16.20;25.20
326;DHT22;150;52.352;14.058;2023-01-01T08:37:36;16.20;25.30
326;DHT22;150;52.352;14.058;2023-01-01T08:40:03;16.20;25.10
326;DHT22;150;52.352;14.058;2023-01-01T08:42:30;16.30;25.10
326;DHT22;150;52.352;14.058;2023-01-01T08:44:57;16.30;25.00
326;DHT22;150;52.352;14.058;2023-01-01T08:47:25;16.30;25.40
326;DHT22;150;52.352;14.058;2023-01-01T08:49:52;16.40;25.10
326;DHT22;150;52.352;14.058;2023-01-01T08:52:20;16.50;25.00
326;DHT22;150;52.352;14.058;2023-01-01T08:54:48;16.50;25.00
326;DHT22;150;52.352;14.058;2023-01-01T08:57:14;16.40;25.10
326;DHT22;150;52.352;14.058;2023-01-01T08:59:41;16.40;24.90
326;DHT22;150;52.352;14.058;2023-01-01T09:02:08;16.40;24.90
326;DHT22;150;52.352;14.058;2023-01-01T09:04:35;16.40;24.90
326;DHT22;150;52.352;14.058;2023-01-01T09:07:02;16.50;25.00
326;DHT22;150;52.352;14.058;2023-01-01T09:09:29;16.50;24.90
326;DHT22;150;52.352;14.058;2023-01-01T09:11:58;16.50;24.80
326;DHT22;150;52.352;14.058;2023-01-01T09:14:31;16.50;24.80
326;DHT22;150;52.352;14.058;2023-01-01T09:16:58;16.60;24.90
326;DHT22;150;52.352;14.058;2023-01-01T09:19:24;16.60;24.70
326;DHT22;150;52.352;14.058;2023-01-01T09:21:54;16.60;24.90
326;DHT22;150;52.352;14.058;2023-01-01T09:24:21;16.60;24.80
326;DHT22;150;52.352;14.058;2023-01-01T09:26:47;16.60;24.70
326;DHT22;150;52.352;14.058;2023-01-01T09:29:16;16.60;24.70
326;DHT22;150;52.352;14.058;2023-01-01T09:31:45;16.70;24.60
326;DHT22;150;52.352;14.058;2023-01-01T09:34:12;16.80;24.60
326;DHT22;150;52.352;14.058;2023-01-01T09:36:39;16.80;24.60
326;DHT22;150;52.352;14.058;2023-01-01T09:39:05;16.80;24.70
326;DHT22;150;52.352;14.058;2023-01-01T09:41:44;16.80;24.50
326;DHT22;150;52.352;14.058;2023-01-01T09:44:28;16.80;24.20
326;DHT22;150;52.352;14.058;2023-01-01T09:46:59;16.80;24.40
326;DHT22;150;52.352;14.058;2023-01-01T09:49:31;16.70;24.60
326;DHT22;150;52.352;14.058;2023-01-01T09:52:00;16.70;24.90
326;DHT22;150;52.352;14.058;2023-01-01T09:54:32;16.70;24.80
326;DHT22;150;52.352;14.058;2023-01-01T09:57:01;16.70;25.00
326;DHT22;150;52.352;14.058;2023-01-01T09:59:31;16.70;24.80
326;DHT22;150;52.352;14.058;2023-01-01T10:02:03;16.70;24.90
326;DHT22;150;52.352;14.058;2023-01-01T10:04:47;16.70;25.10
326;DHT22;150;52.352;14.058;2023-01-01T10:07:26;16.80;25.00
326;DHT22;150;52.352;14.058;2023-01-01T10:10:00;16.80;25.10
326;DHT22;150;52.352;14.058;2023-01-01T10:12:35;16.90;24.70
326;DHT22;150;52.352;14.058;2023-01-01T10:15:12;17.00;24.80
326;DHT22;150;52.352;14.058;2023-01-01T10:17:44;17.00;24.70
326;DHT22;150;52.352;14.058;2023-01-01T10:20:19;17.00;24.90
326;DHT22;150;52.352;14.058;2023-01-01T10:22:50;17.00;24.60
326;DHT22;150;52.352;14.058;2023-01-01T10:25:21;17.10;24.40
326;DHT22;150;52.352;14.058;2023-01-01T10:27:50;17.10;24.40
326;DHT22;150;52.352;14.058;2023-01-01T10:30:22;17.10;24.50
326;DHT22;150;52.352;14.058;2023-01-01T10:32:50;17.20;24.70
326;DHT22;150;52.352;14.058;2023-01-01T10:35:19;17.20;24.50
326;DHT22;150;52.352;14.058;2023-01-01T10:37:47;17.30;24.10
326;DHT22;150;52.352;14.058;2023-01-01T10:40:19;17.40;23.90
326;DHT22;150;52.352;14.058;2023-01-01T10:42:47;17.50;23.70
326;DHT22;150;52.352;14.058;2023-01-01T10:45:16;17.60;23.60
326;DHT22;150;52.352;14.058;2023-01-01T10:48:15;17.60;23.10
326;DHT22;150;52.352;14.058;2023-01-01T10:50:45;17.70;22.90
326;DHT22;150;52.352;14.058;2023-01-01T10:53:26;17.80;23.40
326;DHT22;150;52.352;14.058;2023-01-01T10:56:03;17.90;23.00
326;DHT22;150;52.352;14.058;2023-01-01T10:58:35;17.90;22.90
326;DHT22;150;52.352;14.058;2023-01-01T11:01:04;17.90;22.80
326;DHT22;150;52.352;14.058;2023-01-01T11:03:33;17.90;23.10
326;DHT22;150;52.352;14.058;2023-01-01T11:06:08;17.90;22.80
326;DHT22;150;52.352;14.058;2023-01-01T11:08:38;17.90;22.80
326;DHT22;150;52.352;14.058;2023-01-01T11:11:06;17.80;23.20
326;DHT22;150;52.352;14.058;2023-01-01T11:13:33;17.80;23.10
326;DHT22;150;52.352;14.058;2023-01-01T11:16:00;17.70;23.40
326;DHT22;150;52.352;14.058;2023-01-01T11:18:28;17.60;23.50
326;DHT22;150;52.352;14.058;2023-01-01T11:21:03;17.60;23.40
326;DHT22;150;52.352;14.058;2023-01-01T11:23:32;17.60;23.50
326;DHT22;150;52.352;14.058;2023-01-01T11:26:01;17.60;23.50
326;DHT22;150;52.352;14.058;2023-01-01T11:28:29;17.60;23.70
326;DHT22;150;52.352;14.058;2023-01-01T11:31:04;17.50;23.60
326;DHT22;150;52.352;14.058;2023-01-01T11:33:34;17.50;23.70
326;DHT22;150;52.352;14.058;2023-01-01T11:36:05;17.50;23.90
326;DHT22;150;52.352;14.058;2023-01-01T11:38:32;17.60;24.00
326;DHT22;150;52.352;14.058;2023-01-01T11:41:03;17.60;23.80
326;DHT22;150;52.352;14.058;2023-01-01T11:43:37;17.60;23.90
326;DHT22;150;52.352;14.058;2023-01-01T11:46:09;17.50;23.70
326;DHT22;150;52.352;14.058;2023-01-01T11:48:41;17.40;23.80
326;DHT22;150;52.352;14.058;2023-01-01T11:51:28;17.40;23.70
326;DHT22;150;52.352;14.058;2023-01-01T11:54:11;17.50;24.10
326;DHT22;150;52.352;14.058;2023-01-01T11:56:46;17.40;23.80
326;DHT22;150;52.352;14.058;2023-01-01T11:59:15;17.50;23.70
326;DHT22;150;52.352;14.058;2023-01-01T12:01:45;17.40;23.80
326;DHT22;150;52.352;14.058;2023-01-01T12:04:18;17.40;23.80
326;DHT22;150;52.352;14.058;2023-01-01T12:06:50;17.50;23.70
326;DHT22;150;52.352;14.058;2023-01-01T12:09:21;17.40;24.10
326;DHT22;150;52.352;14.058;2023-01-01T12:11:51;17.20;24.10
326;DHT22;150;52.352;14.058;2023-01-01T12:14:25;17.20;24.30
326;DHT22;150;52.352;14.058;2023-01-01T12:16:57;17.20;24.40
326;DHT22;150;52.352;14.058;2023-01-01T12:19:28;17.20;24.20
326;DHT22;150;52.352;14.058;2023-01-01T12:21:59;17.20;24.50
326;DHT22;150;52.352;14.058;2023-01-01T12:24:32;17.30;24.40
326;DHT22;150;52.352;14.058;2023-01-01T12:27:11;17.20;24.50
326;DHT22;150;52.352;14.058;2023-01-01T12:29:50;17.30;24.60
326;DHT22;150;52.352;14.058;2023-01-01T12:32:24;17.30;24.60
326;DHT22;150;52.352;14.058;2023-01-01T12:34:57;17.30;24.50
326;DHT22;150;52.352;14.058;2023-01-01T12:37:42;17.30;24.60
326;DHT22;150;52.352;14.058;2023-01-01T12:40:30;17.30;24.50
326;DHT22;150;52.352;14.058;2023-01-01T12:43:01;17.20;24.50
326;DHT22;150;52.352;14.058;2023-01-01T12:45:48;17.10;24.70
326;DHT22;150;52.352;14.058;2023-01-01T12:48:39;17.10;24.90
326;DHT22;150;52.352;14.058;2023-01-01T12:51:19;17.10;24.80
326;DHT22;150;52.352;14.058;2023-01-01T12:53:54;17.20;24.70
326;DHT22;150;52.352;14.058;2023-01-01T12:56:28;17.10;24.90
326;DHT22;150;52.352;14.058;2023-01-01T12:59:03;17.10;25.00
326;DHT22;150;52.352;14.058;2023-01-01T13:01:33;17.10;25.30
326;DHT22;150;52.352;14.058;2023-01-01T13:04:02;17.10;25.30
326;DHT22;150;52.352;14.058;2023-01-01T13:06:32;17.20;25.40
326;DHT22;150;52.352;14.058;2023-01-01T13:09:04;17.20;25.20
326;DHT22;150;52.352;14.058;2023-01-01T13:11:33;17.10;25.40
326;DHT22;150;52.352;14.058;2023-01-01T13:14:00;17.00;25.40
326;DHT22;150;52.352;14.058;2023-01-01T13:16:35;17.00;25.60
326;DHT22;150;52.352;14.058;2023-01-01T13:19:02;16.90;25.60
326;DHT22;150;52.352;14.058;2023-01-01T13:21:29;16.90;25.80
326;DHT22;150;52.352;14.058;2023-01-01T13:24:04;16.90;25.80
326;DHT22;150;52.352;14.058;2023-01-01T13:26:42;16.80;25.80
326;DHT22;150;52.352;14.058;2023-01-01T13:29:31;16.80;26.00
326;DHT22;150;52.352;14.058;2023-01-01T13:32:02;16.90;26.20
326;DHT22;150;52.352;14.058;2023-01-01T13:34:39;16.80;26.00
326;DHT22;150;52.352;14.058;2023-01-01T13:37:29;16.80;25.90
326;DHT22;150;52.352;14.058;2023-01-01T13:39:58;16.80;26.00
326;DHT22;150;52.352;14.058;2023-01-01T13:42:42;16.80;26.40
326;DHT22;150;52.352;14.058;2023-01-01T13:45:14;16.80;26.20
326;DHT22;150;52.352;14.058;2023-01-01T13:48:00;16.80;26.30
326;DHT22;150;52.352;14.058;2023-01-01T13:50:35;16.80;26.40
326;DHT22;150;52.352;14.058;2023-01-01T13:53:36;16.80;26.30
326;DHT22;150;52.352;14.058;2023-01-01T13:56:22;16.70;26.30
326;DHT22;150;52.352;14.058;2023-01-01T13:59:04;16.70;26.40
326;DHT22;150;52.352;14.058;2023-01-01T14:01:43;16.70;26.30
326;DHT22;150;52.352;14.058;2023-01-01T14:04:26;16.70;26.50
326;DHT22;150;52.352;14.058;2023-01-01T14:06:54;16.60;26.50
326;DHT22;150;52.352;14.058;2023-01-01T14:09:24;16.60;26.70
326;DHT22;150;52.352;14.058;2023-01-01T14:11:52;16.50;26.90
326;DHT22;150;52.352;14.058;2023-01-01T14:14:24;16.60;26.90
326;DHT22;150;52.352;14.058;2023-01-01T14:16:54;16.60;27.00
326;DHT22;150;52.352;14.058;2023-01-01T14:19:22;16.60;26.90
326;DHT22;150;52.352;14.058;2023-01-01T14:21:50;16.70;26.90
326;DHT22;150;52.352;14.058;2023-01-01T14:24:19;16.60;26.90
326;DHT22;150;52.352;14.058;2023-01-01T14:26:47;16.60;26.90
326;DHT22;150;52.352;14.058;2023-01-01T14:29:19;16.60;27.20
326;DHT22;150;52.352;14.058;2023-01-01T14:31:47;16.60;27.00
326;DHT22;150;52.352;14.058;2023-01-01T14:34:15;16.60;26.80
326;DHT22;150;52.352;14.058;2023-01-01T14:36:49;16.60;27.00
326;DHT22;150;52.352;14.058;2023-01-01T14:39:27;16.50;27.00
326;DHT22;150;52.352;14.058;2023-01-01T14:41:58;16.50;27.20
326;DHT22;150;52.352;14.058;2023-01-01T14:44:32;16.40;27.40
326;DHT22;150;52.352;14.058;2023-01-01T14:47:00;16.30;27.50
326;DHT22;150;52.352;14.058;2023-01-01T14:49:29;16.30;27.80
326;DHT22;150;52.352;14.058;2023-01-01T14:51:59;16.30;27.80
326;DHT22;150;52.352;14.058;2023-01-01T14:54:30;16.20;27.80
326;DHT22;150;52.352;14.058;2023-01-01T14:56:58;16.20;27.70
326;DHT22;150;52.352;14.058;2023-01-01T14:59:29;16.10;27.70
326;DHT22;150;52.352;14.058;2023-01-01T15:02:00;16.10;27.90
326;DHT22;150;52.352;14.058;2023-01-01T15:04:27;16.10;28.20
326;DHT22;150;52.352;14.058;2023-01-01T15:06:54;15.90;28.40
326;DHT22;150;52.352;14.058;2023-01-01T15:09:22;15.90;28.70
326;DHT22;150;52.352;14.058;2023-01-01T15:11:51;16.00;28.60
326;DHT22;150;52.352;14.058;2023-01-01T15:14:32;16.00;28.50
326;DHT22;150;52.352;14.058;2023-01-01T15:17:00;16.00;28.50
326;DHT22;150;52.352;14.058;2023-01-01T15:19:27;16.00;28.60
326;DHT22;150;52.352;14.058;2023-01-01T15:21:54;15.90;28.70
326;DHT22;150;52.352;14.058;2023-01-01T15:24:21;15.90;28.60
326;DHT22;150;52.352;14.058;2023-01-01T15:26:52;15.90;28.80
326;DHT22;150;52.352;14.058;2023-01-01T15:29:28;15.90;28.80
326;DHT22;150;52.352;14.058;2023-01-01T15:31:57;15.90;29.00
326;DHT22;150;52.352;14.058;2023-01-01T15:34:27;15.80;29.10
326;DHT22;150;52.352;14.058;2023-01-01T15:36:56;15.80;29.10
326;DHT22;150;52.352;14.058;2023-01-01T15:39:23;15.70;29.20
326;DHT22;150;52.352;14.058;2023-01-01T15:41:51;15.70;29.30
326;DHT22;150;52.352;14.058;2023-01-01T15:44:24;15.60;29.50
326;DHT22;150;52.352;14.058;2023-01-01T15:46:51;15.60;29.70
326;DHT22;150;52.352;14.058;2023-01-01T15:49:23;15.60;29.70
326;DHT22;150;52.352;14.058;2023-01-01T15:51:51;15.60;29.70
326;DHT22;150;52.352;14.058;2023-01-01T15:54:19;15.60;29.70
326;DHT22;150;52.352;14.058;2023-01-01T15:56:46;15.60;29.70
326;DHT22;150;52.352;14.058;2023-01-01T15:59:20;15.60;30.00
326;DHT22;150;52.352;14.058;2023-01-01T16:01:49;15.50;30.00
326;DHT22;150;52.352;14.058;2023-01-01T16:04:17;15.50;30.10
326;DHT22;150;52.352;14.058;2023-01-01T16:06:47;15.50;30.10
326;DHT22;150;52.352;14.058;2023-01-01T16:09:15;15.50;30.30
326;DHT22;150;52.352;14.058;2023-01-01T16:11:43;15.40;30.40
326;DHT22;150;52.352;14.058;2023-01-01T16:14:10;15.40;30.80
326;DHT22;150;52.352;14.058;2023-01-01T16:16:38;15.40;30.50
326;DHT22;150;52.352;14.058;2023-01-01T16:19:05;15.40;30.60
326;DHT22;150;52.352;14.058;2023-01-01T16:21:35;15.30;30.60
326;DHT22;150;52.352;14.058;2023-01-01T16:24:04;15.30;30.70
326;DHT22;150;52.352;14.058;2023-01-01T16:26:31;15.30;30.70
326;DHT22;150;52.352;14.058;2023-01-01T16:28:58;15.30;30.90
326;DHT22;150;52.352;14.058;2023-01-01T16:31:25;15.30;31.00
326;DHT22;150;52.352;14.058;2023-01-01T16:33:55;15.30;30.80
326;DHT22;150;52.352;14.058;2023-01-01T16:36:22;15.30;30.80
326;DHT22;150;52.352;14.058;2023-01-01T16:38:48;15.30;30.70